createdAt,value
2022-12-08T00:00:24.463Z,86.96
2022-12-08T00:02:51.167Z,87.26
2022-12-08T00:05:38.174Z,87.42
2022-12-08T00:08:23.480Z,87.43
2022-12-08T00:10:50.282Z,87.46
2022-12-08T00:13:16.796Z,87.22
2022-12-08T00:15:43.264Z,87.53
2022-12-08T00:18:09.693Z,87.71
2022-12-08T00:20:36.178Z,87.80
2022-12-08T00:23:04.176Z,87.34
2022-12-08T00:25:31.738Z,87.72
2022-12-08T00:27:58.237Z,87.57
2022-12-08T00:30:24.680Z,87.93
2022-12-08T00:32:51.085Z,88.13
2022-12-08T00:35:17.545Z,87.76
2022-12-08T00:37:44.400Z,88.35
2022-12-08T00:40:11.259Z,88.40
2022-12-08T00:42:37.703Z,88.25
2022-12-08T00:45:04.735Z,88.65
2022-12-08T00:47:31.235Z,88.66
2022-12-08T00:49:57.762Z,88.58
2022-12-08T00:52:24.240Z,88.54
2022-12-08T00:54:50.777Z,88.82
2022-12-08T00:57:17.213Z,88.99
2022-12-08T00:59:43.624Z,88.61
2022-12-08T01:02:10.046Z,88.76
2022-12-08T01:04:36.557Z,88.60
2022-12-08T01:07:03.046Z,88.60
2022-12-08T01:09:29.573Z,88.24
2022-12-08T01:11:55.976Z,88.64
2022-12-08T01:14:22.538Z,88.11
2022-12-08T01:16:49.087Z,88.08
2022-12-08T01:19:16.752Z,88.35
2022-12-08T01:21:44.471Z,88.07
2022-12-08T01:24:19.782Z,88.70
2022-12-08T01:26:47.152Z,88.04
2022-12-08T01:29:14.225Z,88.37
2022-12-08T01:31:40.836Z,88.24
2022-12-08T01:34:08.636Z,88.48
2022-12-08T01:36:39.421Z,88.36
2022-12-08T01:39:10.325Z,88.64
2022-12-08T01:41:39.310Z,88.51
2022-12-08T01:44:08.845Z,88.62
2022-12-08T01:46:38.217Z,88.45
2022-12-08T01:49:17.827Z,88.75
2022-12-08T01:52:23.365Z,89.21
2022-12-08T01:54:57.905Z,88.42
2022-12-08T01:57:29.604Z,88.32
2022-12-08T02:00:17.068Z,88.45
2022-12-08T02:02:54.367Z,87.68
2022-12-08T02:05:24.606Z,86.55
2022-12-08T02:07:51.848Z,87.68
2022-12-08T02:10:21.744Z,85.75
2022-12-08T02:12:51.587Z,85.60
2022-12-08T02:15:18.718Z,85.73
2022-12-08T02:18:15.761Z,86.42
2022-12-08T02:21:32.726Z,86.62
2022-12-08T02:24:26.509Z,86.40
2022-12-08T02:27:29.827Z,87.19
2022-12-08T02:30:12.505Z,87.42
2022-12-08T02:33:03.288Z,87.27
2022-12-08T02:35:54.889Z,88.24
2022-12-08T02:38:23.904Z,88.24
2022-12-08T02:41:03.967Z,88.93
2022-12-08T02:43:43.811Z,88.99
2022-12-08T02:46:16.225Z,88.91
2022-12-08T02:48:43.699Z,88.67
2022-12-08T02:51:10.187Z,89.05
2022-12-08T02:53:37.009Z,89.22
2022-12-08T02:56:21.641Z,89.21
2022-12-08T02:59:04.240Z,89.35
2022-12-08T03:01:37.125Z,89.21
2022-12-08T03:04:14.006Z,89.43
2022-12-08T03:07:17.278Z,90.23
2022-12-08T03:10:12.365Z,90.07
2022-12-08T03:12:46.759Z,89.12
2022-12-08T03:15:18.287Z,88.91
2022-12-08T03:17:53.853Z,89.18
2022-12-08T03:20:24.410Z,88.83
2022-12-08T03:22:55.795Z,89.00
2022-12-08T03:25:25.328Z,88.57
2022-12-08T03:27:52.829Z,88.86
2022-12-08T03:30:19.518Z,88.27
2022-12-08T03:32:58.611Z,89.16
2022-12-08T03:35:29.458Z,88.51
2022-12-08T03:38:13.613Z,88.88
2022-12-08T03:40:40.517Z,88.16
2022-12-08T03:43:07.079Z,88.05
2022-12-08T03:45:33.769Z,87.99
2022-12-08T03:48:00.704Z,88.04
2022-12-08T03:50:27.580Z,88.18
2022-12-08T03:52:54.009Z,88.11
2022-12-08T03:55:21.609Z,87.94
2022-12-08T03:57:48.048Z,87.93
2022-12-08T04:00:16.955Z,87.96
2022-12-08T04:02:43.781Z,87.73
2022-12-08T04:05:10.666Z,87.68
2022-12-08T04:07:37.139Z,87.68
2022-12-08T04:10:04.798Z,87.61
2022-12-08T04:12:31.535Z,87.66
2022-12-08T04:14:57.952Z,87.31
2022-12-08T04:17:24.605Z,87.40
2022-12-08T04:19:51.057Z,87.28
2022-12-08T04:22:17.484Z,87.52
2022-12-08T04:24:43.871Z,87.71
2022-12-08T04:27:10.388Z,87.31
2022-12-08T04:29:36.825Z,87.30
2022-12-08T04:32:03.450Z,87.34
2022-12-08T04:34:29.887Z,87.33
2022-12-08T04:36:56.370Z,87.15
2022-12-08T04:39:22.940Z,87.12
2022-12-08T04:41:49.348Z,87.25
2022-12-08T04:44:15.748Z,87.11
2022-12-08T04:46:43.793Z,86.82
2022-12-08T04:49:10.599Z,86.81
2022-12-08T04:51:37.053Z,86.79
2022-12-08T04:54:03.518Z,86.70
2022-12-08T04:56:29.909Z,86.74
2022-12-08T04:58:56.404Z,86.71
2022-12-08T05:01:22.929Z,86.71
2022-12-08T05:03:49.421Z,86.69
2022-12-08T05:06:15.874Z,86.49
2022-12-08T05:08:43.318Z,86.86
2022-12-08T05:11:11.071Z,86.59
2022-12-08T05:13:37.750Z,86.55
2022-12-08T05:16:06.684Z,86.26
2022-12-08T05:18:33.680Z,86.10
2022-12-08T05:21:00.178Z,86.10
2022-12-08T05:23:27.656Z,86.12
2022-12-08T05:25:54.074Z,86.10
2022-12-08T05:28:40.722Z,86.18
2022-12-08T05:31:07.149Z,86.14
2022-12-08T05:33:33.715Z,86.30
2022-12-08T05:36:00.136Z,86.19
2022-12-08T05:38:26.542Z,86.38
2022-12-08T05:40:53.018Z,86.11
2022-12-08T05:43:19.428Z,86.42
2022-12-08T05:45:45.946Z,86.30
2022-12-08T05:48:12.457Z,86.36
2022-12-08T05:50:38.943Z,86.13
2022-12-08T05:53:05.508Z,86.03
2022-12-08T05:55:32.084Z,86.12
2022-12-08T05:58:01.868Z,86.18
2022-12-08T06:00:34.656Z,86.13
2022-12-08T06:03:01.508Z,86.21
2022-12-08T06:05:28.062Z,85.89
2022-12-08T06:07:54.755Z,86.32
2022-12-08T06:10:23.230Z,86.22
2022-12-08T06:12:49.668Z,85.85
2022-12-08T06:15:16.151Z,85.79
2022-12-08T06:17:42.542Z,85.94
2022-12-08T06:20:09.838Z,86.03
2022-12-08T06:22:36.727Z,86.07
2022-12-08T06:25:07.287Z,85.75
2022-12-08T06:27:36.250Z,86.00
2022-12-08T06:30:03.253Z,86.13
2022-12-08T06:32:30.001Z,85.82
2022-12-08T06:34:56.470Z,86.28
2022-12-08T06:37:22.940Z,86.41
2022-12-08T06:39:49.346Z,86.19
2022-12-08T06:42:34.205Z,86.59
2022-12-08T06:45:00.826Z,86.47
2022-12-08T06:47:27.234Z,86.56
2022-12-08T06:49:53.737Z,86.77
2022-12-08T06:52:20.268Z,86.59
2022-12-08T06:54:46.710Z,86.70
2022-12-08T06:57:13.092Z,86.49
2022-12-08T06:59:39.950Z,86.53
2022-12-08T07:02:06.914Z,86.22
2022-12-08T07:04:33.422Z,86.43
2022-12-08T07:06:59.873Z,85.97
2022-12-08T07:09:26.315Z,85.76
2022-12-08T07:11:52.819Z,85.79
2022-12-08T07:14:23.528Z,85.79
2022-12-08T07:16:50.724Z,85.86
2022-12-08T07:19:17.576Z,85.73
2022-12-08T07:21:44.093Z,85.89
2022-12-08T07:24:11.496Z,85.81
2022-12-08T07:26:38.157Z,85.97
2022-12-08T07:29:04.681Z,85.67
2022-12-08T07:31:31.224Z,86.03
2022-12-08T07:33:58.166Z,85.78
2022-12-08T07:36:25.634Z,86.00
2022-12-08T07:38:55.465Z,86.05
2022-12-08T07:41:23.893Z,86.09
2022-12-08T07:43:50.941Z,86.09
2022-12-08T07:46:19.919Z,86.04
2022-12-08T07:48:47.015Z,86.26
2022-12-08T07:51:15.198Z,86.13
2022-12-08T07:53:47.202Z,86.13
2022-12-08T07:56:16.751Z,85.97
2022-12-08T07:58:45.708Z,86.48
2022-12-08T08:01:38.596Z,87.62
2022-12-08T08:04:06.036Z,86.22
2022-12-08T08:06:33.912Z,86.26
2022-12-08T08:09:00.986Z,86.43
2022-12-08T08:11:27.530Z,86.67
2022-12-08T08:13:54.013Z,86.30
2022-12-08T08:16:21.389Z,86.61
2022-12-08T08:18:49.913Z,86.37
2022-12-08T08:21:43.882Z,86.46
2022-12-08T08:24:03.712Z,86.42
2022-12-08T08:26:30.126Z,86.34
2022-12-08T08:28:56.546Z,86.06
2022-12-08T08:31:26.911Z,86.31
2022-12-08T08:33:53.873Z,86.20
2022-12-08T08:36:22.056Z,86.17
2022-12-08T08:38:48.578Z,86.20
2022-12-08T08:41:15.039Z,85.87
2022-12-08T08:43:41.490Z,85.48
2022-12-08T08:46:08.974Z,84.92
2022-12-08T08:48:36.184Z,85.03
2022-12-08T08:51:11.303Z,85.47
2022-12-08T08:53:38.527Z,84.09
2022-12-08T08:56:13.263Z,84.22
2022-12-08T08:58:40.558Z,84.30
2022-12-08T09:01:07.563Z,84.39
2022-12-08T09:03:34.093Z,84.32
2022-12-08T09:06:00.581Z,84.45
2022-12-08T09:08:27.234Z,84.65
2022-12-08T09:10:54.725Z,84.84
2022-12-08T09:13:22.199Z,84.66
2022-12-08T09:15:48.834Z,84.76
2022-12-08T09:18:15.370Z,85.25
2022-12-08T09:20:42.121Z,85.08
2022-12-08T09:23:08.576Z,85.32
2022-12-08T09:25:35.014Z,85.38
2022-12-08T09:28:01.599Z,85.73
2022-12-08T09:30:28.034Z,85.73
2022-12-08T09:32:54.592Z,86.04
2022-12-08T09:35:21.204Z,85.76
2022-12-08T09:37:47.632Z,86.33
2022-12-08T09:40:20.773Z,86.92
2022-12-08T09:43:06.121Z,87.09
2022-12-08T09:45:35.172Z,86.56
2022-12-08T09:48:15.079Z,87.51
2022-12-08T09:51:03.331Z,87.89
2022-12-08T09:53:35.364Z,86.47
2022-12-08T09:56:21.257Z,87.10
2022-12-08T09:59:00.055Z,86.66
2022-12-08T10:01:33.076Z,86.00
2022-12-08T10:04:00.637Z,85.50
2022-12-08T10:06:47.041Z,85.79
2022-12-08T10:09:32.184Z,85.19
2022-12-08T10:12:10.971Z,85.54
2022-12-08T10:14:43.240Z,86.00
2022-12-08T10:17:35.025Z,86.78
2022-12-08T10:20:23.555Z,86.58
2022-12-08T10:22:57.592Z,86.20
2022-12-08T10:25:45.512Z,86.70
2022-12-08T10:28:12.824Z,85.48
2022-12-08T10:30:39.421Z,85.50
2022-12-08T10:33:14.731Z,86.18
2022-12-08T10:36:07.135Z,86.41
2022-12-08T10:38:35.827Z,85.69
2022-12-08T10:41:14.597Z,86.70
2022-12-08T10:43:46.490Z,86.49
2022-12-08T10:46:27.483Z,86.96
2022-12-08T10:49:13.004Z,86.61
2022-12-08T10:51:42.260Z,85.55
2022-12-08T10:54:44.282Z,86.80
2022-12-08T10:57:21.037Z,85.89
2022-12-08T10:59:47.552Z,84.96
2022-12-08T11:02:20.244Z,85.25
2022-12-08T11:04:47.435Z,84.86
2022-12-08T11:07:22.268Z,84.92
2022-12-08T11:09:52.950Z,84.22
2022-12-08T11:12:21.892Z,84.43
2022-12-08T11:14:49.964Z,84.51
2022-12-08T11:17:18.138Z,84.37
2022-12-08T11:19:55.661Z,84.69
2022-12-08T11:22:32.998Z,85.58
2022-12-08T11:24:59.517Z,85.01
2022-12-08T11:27:26.374Z,84.81
2022-12-08T11:29:53.534Z,84.92
2022-12-08T11:32:20.831Z,85.01
2022-12-08T11:35:01.409Z,84.84
2022-12-08T11:37:38.945Z,85.06
2022-12-08T11:40:19.537Z,85.42
2022-12-08T11:43:08.925Z,85.53
2022-12-08T11:45:36.834Z,84.78
2022-12-08T11:48:26.910Z,85.34
2022-12-08T11:50:58.543Z,85.03
2022-12-08T11:53:51.723Z,85.50
2022-12-08T11:56:33.457Z,85.28
2022-12-08T11:59:06.266Z,84.89
2022-12-08T12:01:34.006Z,84.66
2022-12-08T12:04:24.876Z,85.55
2022-12-08T12:07:13.127Z,85.39
2022-12-08T12:09:57.918Z,84.66
2022-12-08T12:12:39.635Z,83.72
2022-12-08T12:15:51.778Z,84.66
2022-12-08T12:18:35.888Z,84.33
2022-12-08T12:21:19.905Z,84.26
2022-12-08T12:23:56.437Z,83.54
2022-12-08T12:26:29.420Z,83.12
2022-12-08T12:29:11.050Z,83.61
2022-12-08T12:31:42.979Z,82.77
2022-12-08T12:34:18.686Z,82.95
2022-12-08T12:36:52.649Z,83.33
2022-12-08T12:39:24.742Z,83.42
2022-12-08T12:42:00.123Z,83.90
2022-12-08T12:44:29.285Z,84.33
2022-12-08T12:47:00.819Z,84.56
2022-12-08T12:49:46.028Z,85.27
2022-12-08T12:52:15.560Z,84.70
2022-12-08T12:55:05.718Z,84.70
2022-12-08T12:57:56.060Z,85.15
2022-12-08T13:00:25.339Z,83.59
2022-12-08T13:02:55.074Z,83.29
2022-12-08T13:05:30.317Z,83.02
2022-12-08T13:08:07.861Z,83.84
2022-12-08T13:10:39.663Z,83.74
2022-12-08T13:13:16.485Z,83.56
2022-12-08T13:15:54.880Z,84.29
2022-12-08T13:18:26.077Z,83.79
2022-12-08T13:21:05.775Z,83.29
2022-12-08T13:23:38.211Z,83.98
2022-12-08T13:26:13.937Z,84.20
2022-12-08T13:29:25.677Z,84.87
2022-12-08T13:32:03.057Z,84.51
2022-12-08T13:34:29.501Z,83.83
2022-12-08T13:37:11.321Z,85.01
2022-12-08T13:39:40.836Z,84.06
2022-12-08T13:42:29.127Z,85.16
2022-12-08T13:48:26.654Z,83.89
2022-12-08T13:57:10.071Z,83.65
2022-12-08T13:59:34.504Z,83.77
2022-12-08T14:02:28.901Z,84.58
2022-12-08T14:07:43.758Z,84.03
2022-12-08T14:10:18.044Z,85.07
2022-12-08T14:12:47.475Z,84.58
2022-12-08T14:15:15.703Z,84.67
2022-12-08T14:17:51.120Z,85.24
2022-12-08T14:20:25.210Z,84.68
2022-12-08T14:22:52.981Z,84.42
2022-12-08T14:25:20.727Z,84.30
2022-12-08T14:27:48.346Z,84.13
2022-12-08T14:30:24.618Z,84.19
2022-12-08T14:32:55.861Z,84.35
2022-12-08T14:35:31.224Z,84.93
2022-12-08T14:38:00.017Z,84.37
2022-12-08T14:40:36.624Z,84.62
2022-12-08T14:43:09.227Z,84.81
2022-12-08T14:45:41.502Z,84.77
2022-12-08T14:48:28.087Z,85.46
2022-12-08T14:51:03.725Z,84.61
2022-12-08T14:53:39.461Z,84.93
2022-12-08T14:56:28.365Z,84.88
2022-12-08T14:59:06.962Z,85.81
2022-12-08T15:01:34.326Z,85.06
2022-12-08T15:04:22.742Z,85.33
2022-12-08T15:07:13.076Z,85.99
2022-12-08T15:09:45.956Z,85.59
2022-12-08T15:12:12.366Z,85.20
2022-12-08T15:14:54.906Z,85.99
2022-12-08T15:17:33.181Z,86.04
2022-12-08T15:20:00.756Z,85.97
2022-12-08T15:22:29.575Z,85.60
2022-12-08T15:24:57.376Z,85.81
2022-12-08T15:27:25.194Z,85.84
2022-12-08T15:29:55.065Z,85.89
2022-12-08T15:32:23.371Z,85.81
2022-12-08T15:34:50.304Z,85.70
2022-12-08T15:37:23.807Z,86.14
2022-12-08T15:39:50.643Z,86.26
2022-12-08T15:42:17.107Z,86.36
2022-12-08T15:44:44.149Z,86.32
2022-12-08T15:47:16.813Z,86.98
2022-12-08T15:49:43.893Z,86.70
2022-12-08T15:52:13.950Z,86.75
2022-12-08T15:54:40.798Z,86.50
2022-12-08T15:57:25.274Z,86.78
2022-12-08T16:00:03.790Z,86.87
2022-12-08T16:02:49.162Z,87.14
2022-12-08T16:05:41.554Z,87.15
2022-12-08T16:08:17.155Z,87.19
2022-12-08T16:11:29.218Z,86.90
2022-12-08T16:14:16.696Z,86.77
2022-12-08T16:16:38.692Z,86.89
2022-12-08T16:19:05.141Z,86.98
2022-12-08T16:22:04.713Z,86.85
2022-12-08T16:24:18.270Z,87.01
2022-12-08T16:27:57.973Z,86.76
2022-12-08T16:29:31.225Z,86.63
2022-12-08T16:31:57.685Z,86.64
2022-12-08T16:34:24.090Z,86.56
2022-12-08T16:36:52.717Z,86.50
2022-12-08T16:39:19.197Z,86.81
2022-12-08T16:42:04.094Z,86.88
2022-12-08T16:44:30.542Z,86.35
2022-12-08T16:46:56.985Z,86.72
2022-12-08T16:49:23.421Z,86.81
2022-12-08T16:51:49.845Z,86.70
2022-12-08T16:54:16.297Z,86.90
2022-12-08T16:56:42.820Z,86.80
2022-12-08T16:59:09.265Z,86.60
2022-12-08T17:01:36.400Z,86.19
2022-12-08T17:06:52.749Z,86.37
2022-12-08T17:09:19.243Z,86.71
2022-12-08T17:11:45.680Z,86.81
2022-12-08T17:14:12.951Z,86.53
2022-12-08T17:16:40.183Z,86.44
2022-12-08T17:19:07.250Z,86.57
2022-12-08T17:21:33.792Z,86.12
2022-12-08T17:24:00.271Z,86.22
2022-12-08T17:26:26.851Z,85.85
2022-12-08T17:29:01.558Z,85.64
2022-12-08T17:31:30.234Z,85.57
2022-12-08T17:34:02.281Z,86.21
2022-12-08T17:36:28.809Z,85.43
2022-12-08T17:38:56.807Z,85.26
2022-12-08T17:41:23.192Z,85.14
2022-12-08T17:43:49.583Z,85.02
2022-12-08T17:46:20.057Z,85.31
2022-12-08T17:48:46.951Z,85.84
2022-12-08T17:51:13.375Z,86.00
2022-12-08T17:53:40.755Z,86.06
2022-12-08T17:56:15.300Z,86.84
2022-12-08T17:58:41.753Z,86.67
2022-12-08T18:01:09.810Z,86.71
2022-12-08T18:03:36.882Z,87.04
2022-12-08T18:06:12.314Z,86.97
2022-12-08T18:08:39.771Z,86.79
2022-12-08T18:11:15.242Z,87.23
2022-12-08T18:13:41.809Z,86.99
2022-12-08T18:16:08.339Z,87.23
2022-12-08T18:18:34.852Z,87.04
2022-12-08T18:21:01.485Z,86.98
2022-12-08T18:23:27.960Z,86.80
2022-12-08T18:25:54.418Z,87.28
2022-12-08T18:28:20.908Z,86.77
2022-12-08T18:30:47.437Z,86.87
2022-12-08T18:33:13.883Z,86.76
2022-12-08T18:35:40.321Z,86.68
2022-12-08T18:38:06.943Z,87.01
2022-12-08T18:40:33.588Z,86.78
2022-12-08T18:43:00.079Z,86.81
2022-12-08T18:45:26.501Z,86.63
2022-12-08T18:47:53.198Z,86.27
2022-12-08T18:50:19.732Z,86.39
2022-12-08T18:52:47.192Z,86.69
2022-12-08T18:55:14.631Z,86.63
2022-12-08T18:57:43.155Z,86.38
2022-12-08T19:00:13.807Z,86.53
2022-12-08T19:02:41.153Z,86.26
2022-12-08T19:05:10.011Z,86.22
2022-12-08T19:07:36.838Z,85.95
2022-12-08T19:10:04.979Z,86.04
2022-12-08T19:12:31.765Z,86.01
2022-12-08T19:14:58.245Z,85.13
2022-12-08T19:17:25.878Z,85.12
2022-12-08T19:19:55.334Z,84.76
2022-12-08T19:22:21.933Z,84.65
2022-12-08T19:24:48.424Z,84.68
2022-12-08T19:27:14.873Z,85.07
2022-12-08T19:29:41.288Z,84.73
2022-12-08T19:32:10.726Z,84.87
2022-12-08T19:34:37.392Z,84.95
2022-12-08T19:37:03.973Z,84.89
2022-12-08T19:39:49.149Z,85.35
2022-12-08T19:42:47.121Z,85.62
2022-12-08T19:45:21.509Z,85.67
2022-12-08T19:47:48.654Z,85.83
2022-12-08T19:50:35.290Z,86.00
2022-12-08T19:53:10.275Z,86.54
2022-12-08T19:55:37.777Z,86.46
2022-12-08T19:58:05.576Z,86.38
2022-12-08T20:00:33.650Z,86.80
2022-12-08T20:03:02.186Z,86.54
2022-12-08T20:05:29.867Z,86.97
2022-12-08T20:07:56.875Z,87.04
2022-12-08T20:10:28.215Z,87.62
2022-12-08T20:13:14.022Z,87.55
2022-12-08T20:15:41.019Z,87.00
2022-12-08T20:18:10.968Z,87.29
2022-12-08T20:20:37.960Z,87.07
2022-12-08T20:23:04.472Z,86.73
2022-12-08T20:25:31.025Z,86.86
2022-12-08T20:27:57.496Z,86.50
2022-12-08T20:30:23.952Z,87.17
2022-12-08T20:32:50.471Z,87.11
2022-12-08T20:35:16.928Z,86.89
2022-12-08T20:37:43.521Z,86.71
2022-12-08T20:40:10.705Z,87.29
2022-12-08T20:42:37.428Z,87.42
2022-12-08T20:45:06.398Z,87.54
2022-12-08T20:47:33.226Z,87.73
2022-12-08T20:49:59.622Z,88.14
2022-12-08T20:52:26.159Z,87.63
2022-12-08T20:54:52.964Z,87.47
2022-12-08T20:57:21.828Z,88.21
2022-12-08T20:59:48.342Z,88.04
2022-12-08T21:02:14.968Z,87.78
2022-12-08T21:04:41.573Z,87.37
2022-12-08T21:07:09.002Z,87.26
2022-12-08T21:09:36.803Z,87.64
2022-12-08T21:12:03.763Z,87.52
2022-12-08T21:14:30.348Z,86.67
2022-12-08T21:16:57.103Z,86.94
2022-12-08T21:19:24.115Z,86.90
2022-12-08T21:21:50.846Z,86.96
2022-12-08T21:24:18.679Z,86.67
2022-12-08T21:26:45.317Z,86.01
2022-12-08T21:29:12.436Z,86.42
2022-12-08T21:31:39.520Z,86.56
2022-12-08T21:34:06.139Z,86.30
2022-12-08T21:36:33.098Z,86.83
2022-12-08T21:39:02.358Z,86.87
2022-12-08T21:41:48.335Z,86.42
2022-12-08T21:44:18.713Z,86.48
2022-12-08T21:46:45.566Z,86.60
2022-12-08T21:49:12.634Z,86.29
2022-12-08T21:51:41.940Z,86.22
2022-12-08T21:54:14.991Z,85.95
2022-12-08T21:56:45.657Z,86.13
2022-12-08T21:59:12.216Z,86.02
2022-12-08T22:01:39.043Z,86.25
2022-12-08T22:04:05.924Z,86.33
2022-12-08T22:06:32.627Z,85.60
2022-12-08T22:08:59.298Z,85.99
2022-12-08T22:11:25.834Z,85.85
2022-12-08T22:13:52.744Z,86.18
2022-12-08T22:16:19.778Z,85.97
2022-12-08T22:18:46.409Z,86.10
2022-12-08T22:21:15.917Z,86.08
2022-12-08T22:23:42.892Z,86.41
2022-12-08T22:26:10.280Z,86.26
2022-12-08T22:28:40.227Z,86.44
2022-12-08T22:31:10.622Z,86.48
2022-12-08T22:33:38.628Z,86.15
2022-12-08T22:36:10.712Z,86.18
2022-12-08T22:38:37.990Z,86.45
2022-12-08T22:41:07.930Z,86.23
2022-12-08T22:43:36.756Z,86.36
2022-12-08T22:46:11.914Z,86.77
2022-12-08T22:48:39.263Z,85.97
2022-12-08T22:51:06.390Z,86.19
2022-12-08T22:53:33.727Z,85.95
2022-12-08T22:56:03.059Z,86.02
2022-12-08T22:58:29.477Z,86.05
2022-12-08T23:00:55.913Z,86.64
2022-12-08T23:03:22.688Z,86.18
2022-12-08T23:05:49.326Z,86.25
2022-12-08T23:08:17.786Z,86.49
2022-12-08T23:10:46.749Z,86.47
2022-12-08T23:13:14.343Z,86.14
2022-12-08T23:15:41.334Z,86.20
2022-12-08T23:18:08.661Z,86.15
2022-12-08T23:20:35.721Z,86.17
2022-12-08T23:23:02.285Z,86.01
2022-12-08T23:25:29.048Z,86.26
2022-12-08T23:27:55.557Z,85.55
2022-12-08T23:30:24.021Z,86.17
2022-12-08T23:32:50.543Z,85.54
2022-12-08T23:35:17.476Z,86.22
2022-12-08T23:37:43.908Z,86.41
2022-12-08T23:40:11.152Z,86.10
2022-12-08T23:42:40.622Z,86.47
2022-12-08T23:45:08.374Z,86.11
2022-12-08T23:47:35.742Z,85.59
2022-12-08T23:50:02.630Z,86.15
2022-12-08T23:52:29.528Z,85.72
2022-12-08T23:54:56.765Z,86.01
2022-12-08T23:57:23.410Z,85.79
2022-12-08T23:59:50.108Z,85.86
